SNVR weather

Aeroclube da Bahia Airport
Vera Cruz, Bahia, Brazil

Public forecast

Using degrees Celsius for public forecast. Weather courtesy of forecast.io.

Closest aviation weather report (METAR) to Aeroclube da Bahia Airport

Closest report is Deputado Luiz Eduardo Magalhães International Airport, 21.3 nm (39.4 km) ENE. Retrieved 2020/05/30 20:00 UTC (32 minutes ago):

SBSV 302000Z 16008KT 9999 FEW020 SCT070 27/19 Q1016

Closest aviation forecast (TAF) to Aeroclube da Bahia Airport

Forecast is more than 6 hours old.

Closest forecast is Deputado Luiz Eduardo Magalhães International Airport, 21.3 nm (39.4 km) ENE. Retrieved 2020/05/30 12:00 UTC (9 hours ago):

TAF SBSV 300900Z 3012/3112 16012KT 8000 SCT017 TX28/3016Z TN24/3108Z RMK PEA